Terminal Aerodrome Forecast
Issued by NWS

Home | Current Version | Previous Version | Text Only | Print | Product List | Glossary On
Versions: 1 2 3 4 5 6 7 8 9 10 11 12 13 14 15 16 17 18 19 20 21 22
000
FTUS46 KMTR 182340
TAFSTS
TAF
KSTS 182340Z 1900/1924 25004KT 6SM -RA BR SCT015 OVC030
      TEMPO 1900/1902 2SM -RA BR BKN040 OVC050
     FM190200 27005KT 5SM -SHRA BR OVC020
     FM190600 VRB02KT 1/2SM FG VCSH OVC003
     FM191200 00000KT 1/4SM FG OVC002
     FM191900 VRB03KT 6SM BR BKN015 BKN040=

USA.gov is the U.S. government's official web portal to all federal, state and local government web resources and services.